sensor_id;sensor_type;location;lat;lon;timestamp;pressure;altitude;pressure_sealevel;temperature;humidity
50684;BME280;36654;45.042;38.994;2023-07-24T00:01:22;100717.75;;;25.08;72.88
50684;BME280;36654;45.042;38.994;2023-07-24T00:03:47;100718.06;;;25.02;73.17
50684;BME280;36654;45.042;38.994;2023-07-24T00:06:13;100705.59;;;24.98;73.64
50684;BME280;36654;45.042;38.994;2023-07-24T00:08:39;100714.94;;;24.92;73.96
50684;BME280;36654;45.042;38.994;2023-07-24T00:11:07;100713.25;;;24.90;73.78
50684;BME280;36654;45.042;38.994;2023-07-24T00:13:33;100713.47;;;24.85;74.70
50684;BME280;36654;45.042;38.994;2023-07-24T00:15:59;100674.22;;;24.56;75.17
50684;BME280;36654;45.042;38.994;2023-07-24T00:18:24;100680.38;;;24.60;75.62
50684;BME280;36654;45.042;38.994;2023-07-24T00:20:50;100710.31;;;24.75;76.09
50684;BME280;36654;45.042;38.994;2023-07-24T00:23:15;100710.47;;;24.72;76.41
50684;BME280;36654;45.042;38.994;2023-07-24T00:25:41;100701.53;;;24.70;77.07
50684;BME280;36654;45.042;38.994;2023-07-24T00:28:07;100699.03;;;24.66;77.11
50684;BME280;36654;45.042;38.994;2023-07-24T00:30:32;100705.38;;;24.66;77.46
50684;BME280;36654;45.042;38.994;2023-07-24T00:32:58;100705.78;;;24.57;77.76
50684;BME280;36654;45.042;38.994;2023-07-24T00:35:24;100710.41;;;24.55;78.02
50684;BME280;36654;45.042;38.994;2023-07-24T00:37:50;100709.59;;;24.53;78.57
50684;BME280;36654;45.042;38.994;2023-07-24T00:40:16;100698.59;;;24.56;78.78
50684;BME280;36654;45.042;38.994;2023-07-24T00:42:46;100692.25;;;24.57;78.98
50684;BME280;36654;45.042;38.994;2023-07-24T00:45:12;100688.72;;;24.55;78.71
50684;BME280;36654;45.042;38.994;2023-07-24T00:47:38;100676.84;;;24.58;79.00
50684;BME280;36654;45.042;38.994;2023-07-24T00:50:04;100645.72;;;24.47;79.04
50684;BME280;36654;45.042;38.994;2023-07-24T00:52:30;100674.09;;;24.59;79.39
50684;BME280;36654;45.042;38.994;2023-07-24T00:54:56;100665.94;;;24.59;79.16
50684;BME280;36654;45.042;38.994;2023-07-24T00:57:22;100658.63;;;24.61;79.06
50684;BME280;36654;45.042;38.994;2023-07-24T00:59:48;100667.41;;;24.66;78.73
50684;BME280;36654;45.042;38.994;2023-07-24T01:02:14;100670.03;;;24.68;78.43
50684;BME280;36654;45.042;38.994;2023-07-24T01:04:39;100674.59;;;24.67;78.84
50684;BME280;36654;45.042;38.994;2023-07-24T01:07:05;100667.53;;;24.63;78.62
50684;BME280;36654;45.042;38.994;2023-07-24T01:09:31;100672.97;;;24.63;78.58
50684;BME280;36654;45.042;38.994;2023-07-24T01:12:01;100673.88;;;24.64;78.70
50684;BME280;36654;45.042;38.994;2023-07-24T01:17:07;100694.63;;;24.63;78.94
50684;BME280;36654;45.042;38.994;2023-07-24T01:19:41;100682.66;;;24.50;79.02
50684;BME280;36654;45.042;38.994;2023-07-24T01:25:18;100698.47;;;24.59;78.99
50684;BME280;36654;45.042;38.994;2023-07-24T01:27:47;100699.50;;;24.57;79.09
50684;BME280;36654;45.042;38.994;2023-07-24T01:30:16;100705.78;;;24.57;78.94
50684;BME280;36654;45.042;38.994;2023-07-24T01:32:42;100710.34;;;24.57;78.78
50684;BME280;36654;45.042;38.994;2023-07-24T01:35:08;100715.81;;;24.55;78.58
50684;BME280;36654;45.042;38.994;2023-07-24T01:37:34;100667.09;;;24.35;78.59
50684;BME280;36654;45.042;38.994;2023-07-24T01:40:02;100704.91;;;24.57;78.73
50684;BME280;36654;45.042;38.994;2023-07-24T01:42:28;100704.00;;;24.56;78.99
50684;BME280;36654;45.042;38.994;2023-07-24T01:44:55;100702.28;;;24.55;78.82
50684;BME280;36654;45.042;38.994;2023-07-24T01:47:21;100700.38;;;24.57;78.78
50684;BME280;36654;45.042;38.994;2023-07-24T01:49:47;100674.09;;;24.39;79.13
50684;BME280;36654;45.042;38.994;2023-07-24T01:52:13;100666.94;;;24.38;78.54
50684;BME280;36654;45.042;38.994;2023-07-24T01:54:39;100710.91;;;24.63;78.94
50684;BME280;36654;45.042;38.994;2023-07-24T01:57:05;100701.25;;;24.58;78.42
50684;BME280;36654;45.042;38.994;2023-07-24T01:59:31;100704.81;;;24.58;78.53
50684;BME280;36654;45.042;38.994;2023-07-24T02:01:56;100658.16;;;24.32;78.69
50684;BME280;36654;45.042;38.994;2023-07-24T02:04:22;100707.53;;;24.58;78.32
50684;BME280;36654;45.042;38.994;2023-07-24T02:06:51;100705.78;;;24.57;78.37
50684;BME280;36654;45.042;38.994;2023-07-24T02:09:18;100707.69;;;24.55;77.95
50684;BME280;36654;45.042;38.994;2023-07-24T02:11:43;100698.75;;;24.53;78.02
50684;BME280;36654;45.042;38.994;2023-07-24T02:14:11;100694.28;;;24.52;78.12
50684;BME280;36654;45.042;38.994;2023-07-24T02:16:36;100685.50;;;24.47;78.13
50684;BME280;36654;45.042;38.994;2023-07-24T02:19:02;100701.66;;;24.48;78.23
50684;BME280;36654;45.042;38.994;2023-07-24T02:21:28;100666.69;;;24.23;78.09
50684;BME280;36654;45.042;38.994;2023-07-24T02:23:54;100702.97;;;24.40;77.68
50684;BME280;36654;45.042;38.994;2023-07-24T02:26:19;100711.75;;;24.45;77.68
50684;BME280;36654;45.042;38.994;2023-07-24T02:28:45;100665.38;;;24.13;78.28
50684;BME280;36654;45.042;38.994;2023-07-24T02:31:11;100712.97;;;24.38;78.28
50684;BME280;36654;45.042;38.994;2023-07-24T02:33:36;100714.16;;;24.32;78.46
50684;BME280;36654;45.042;38.994;2023-07-24T02:36:02;100682.56;;;24.12;78.83
50684;BME280;36654;45.042;38.994;2023-07-24T02:38:28;100691.28;;;24.19;78.87
50684;BME280;36654;45.042;38.994;2023-07-24T02:40:54;100698.25;;;24.24;78.88
50684;BME280;36654;45.042;38.994;2023-07-24T02:43:20;100698.53;;;24.18;79.06
50684;BME280;36654;45.042;38.994;2023-07-24T02:45:45;100710.69;;;24.28;78.97
50684;BME280;36654;45.042;38.994;2023-07-24T02:48:11;100718.69;;;24.31;79.24
50684;BME280;36654;45.042;38.994;2023-07-24T02:50:37;100719.47;;;24.33;78.74
50684;BME280;36654;45.042;38.994;2023-07-24T02:53:02;100723.16;;;24.32;78.73
50684;BME280;36654;45.042;38.994;2023-07-24T02:55:28;100718.69;;;24.31;77.98
50684;BME280;36654;45.042;38.994;2023-07-24T02:57:53;100703.94;;;24.18;77.53
50684;BME280;36654;45.042;38.994;2023-07-24T03:00:19;100728.38;;;24.37;77.55
50684;BME280;36654;45.042;38.994;2023-07-24T03:02:45;100721.25;;;24.35;77.10
50684;BME280;36654;45.042;38.994;2023-07-24T03:05:10;100723.75;;;24.39;76.79
50684;BME280;36654;45.042;38.994;2023-07-24T03:07:36;100719.38;;;24.37;76.42
50684;BME280;36654;45.042;38.994;2023-07-24T03:10:02;100680.53;;;24.17;76.11
50684;BME280;36654;45.042;38.994;2023-07-24T03:12:28;100701.34;;;24.36;75.95
50684;BME280;36654;45.042;38.994;2023-07-24T03:14:54;100700.31;;;24.38;75.68
50684;BME280;36654;45.042;38.994;2023-07-24T03:17:19;100706.53;;;24.40;75.30
50684;BME280;36654;45.042;38.994;2023-07-24T03:19:45;100706.50;;;24.42;75.30
50684;BME280;36654;45.042;38.994;2023-07-24T03:22:10;100712.59;;;24.47;74.75
50684;BME280;36654;45.042;38.994;2023-07-24T03:24:36;100685.94;;;24.36;74.37
50684;BME280;36654;45.042;38.994;2023-07-24T03:27:02;100699.41;;;24.58;73.98
50684;BME280;36654;45.042;38.994;2023-07-24T03:29:28;100654.84;;;24.46;73.09
50684;BME280;36654;45.042;38.994;2023-07-24T03:31:53;100689.81;;;24.70;72.40
50684;BME280;36654;45.042;38.994;2023-07-24T03:34:19;100676.03;;;24.74;72.36
50684;BME280;36654;45.042;38.994;2023-07-24T03:36:45;100686.72;;;24.96;71.48
50684;BME280;36654;45.042;38.994;2023-07-24T03:39:10;100687.84;;;25.10;70.43
50684;BME280;36654;45.042;38.994;2023-07-24T03:41:37;100691.22;;;25.15;69.71
50684;BME280;36654;45.042;38.994;2023-07-24T03:44:03;100695.19;;;25.27;69.16
50684;BME280;36654;45.042;38.994;2023-07-24T03:46:29;100686.06;;;25.28;69.11
50684;BME280;36654;45.042;38.994;2023-07-24T03:48:54;100701.91;;;25.37;68.81
50684;BME280;36654;45.042;38.994;2023-07-24T03:51:20;100689.13;;;25.22;68.94
50684;BME280;36654;45.042;38.994;2023-07-24T03:53:46;100716.28;;;25.39;68.38
50684;BME280;36654;45.042;38.994;2023-07-24T03:56:12;100719.47;;;25.47;68.13
50684;BME280;36654;45.042;38.994;2023-07-24T03:58:37;100711.09;;;25.52;67.82
50684;BME280;36654;45.042;38.994;2023-07-24T04:01:04;100718.50;;;25.66;67.10
50684;BME280;36654;45.042;38.994;2023-07-24T04:03:30;100715.69;;;25.86;66.78
50684;BME280;36654;45.042;38.994;2023-07-24T04:05:56;100718.38;;;26.03;65.77
50684;BME280;36654;45.042;38.994;2023-07-24T04:08:21;100725.94;;;26.14;65.61
50684;BME280;36654;45.042;38.994;2023-07-24T04:10:47;100724.75;;;26.36;65.31
50684;BME280;36654;45.042;38.994;2023-07-24T04:13:13;100729.00;;;26.41;64.33
50684;BME280;36654;45.042;38.994;2023-07-24T04:15:38;100735.22;;;26.43;64.52
50684;BME280;36654;45.042;38.994;2023-07-24T04:18:05;100714.31;;;26.28;63.97
50684;BME280;36654;45.042;38.994;2023-07-24T04:20:30;100736.09;;;26.44;63.50
50684;BME280;36654;45.042;38.994;2023-07-24T04:22:56;100738.72;;;26.45;63.66
50684;BME280;36654;45.042;38.994;2023-07-24T04:25:22;100700.69;;;26.12;63.88
50684;BME280;36654;45.042;38.994;2023-07-24T04:27:47;100734.31;;;26.27;64.25
50684;BME280;36654;45.042;38.994;2023-07-24T04:30:13;100735.56;;;26.04;64.38
50684;BME280;36654;45.042;38.994;2023-07-24T04:32:38;100740.75;;;25.91;64.29
50684;BME280;36654;45.042;38.994;2023-07-24T04:35:04;100743.97;;;25.80;65.12
50684;BME280;36654;45.042;38.994;2023-07-24T04:37:31;100725.38;;;25.73;65.28
50684;BME280;36654;45.042;38.994;2023-07-24T04:39:56;100743.09;;;25.80;65.29
50684;BME280;36654;45.042;38.994;2023-07-24T04:42:22;100743.97;;;25.80;65.27
50684;BME280;36654;45.042;38.994;2023-07-24T04:44:47;100749.63;;;25.76;65.18
50684;BME280;36654;45.042;38.994;2023-07-24T04:47:15;100741.84;;;25.70;65.50
50684;BME280;36654;45.042;38.994;2023-07-24T04:49:41;100730.16;;;25.50;65.74
50684;BME280;36654;45.042;38.994;2023-07-24T04:52:06;100709.06;;;25.38;65.81
50684;BME280;36654;45.042;38.994;2023-07-24T04:54:32;100761.53;;;25.56;65.53
50684;BME280;36654;45.042;38.994;2023-07-24T04:56:58;100758.75;;;25.57;65.95
50684;BME280;36654;45.042;38.994;2023-07-24T04:59:23;100745.88;;;25.44;65.85
50684;BME280;36654;45.042;38.994;2023-07-24T05:01:49;100766.50;;;25.65;65.76
50684;BME280;36654;45.042;38.994;2023-07-24T05:04:15;100759.09;;;25.69;65.46
50684;BME280;36654;45.042;38.994;2023-07-24T05:06:41;100757.09;;;25.72;65.35
50684;BME280;36654;45.042;38.994;2023-07-24T05:09:09;100760.13;;;25.83;65.21
50684;BME280;36654;45.042;38.994;2023-07-24T05:11:35;100765.00;;;26.12;64.44
50684;BME280;36654;45.042;38.994;2023-07-24T05:14:00;100766.00;;;26.44;63.26
50684;BME280;36654;45.042;38.994;2023-07-24T05:16:26;100757.31;;;26.71;62.89
50684;BME280;36654;45.042;38.994;2023-07-24T05:21:20;100750.09;;;27.65;59.28
50684;BME280;36654;45.042;38.994;2023-07-24T05:23:46;100762.78;;;27.96;57.85
50684;BME280;36654;45.042;38.994;2023-07-24T05:26:12;100746.66;;;28.36;56.52
50684;BME280;36654;45.042;38.994;2023-07-24T05:28:37;100745.25;;;29.00;55.13
50684;BME280;36654;45.042;38.994;2023-07-24T05:31:03;100733.41;;;29.56;52.81
50684;BME280;36654;45.042;38.994;2023-07-24T05:33:30;100750.41;;;30.26;50.47
50684;BME280;36654;45.042;38.994;2023-07-24T05:36:00;100744.03;;;30.64;49.05
50684;BME280;36654;45.042;38.994;2023-07-24T05:38:26;100744.56;;;30.82;47.06
50684;BME280;36654;45.042;38.994;2023-07-24T05:40:59;100750.34;;;30.78;47.21
50684;BME280;36654;45.042;38.994;2023-07-24T05:43:26;100728.34;;;30.92;46.86
50684;BME280;36654;45.042;38.994;2023-07-24T05:45:53;100745.00;;;31.26;46.67
50684;BME280;36654;45.042;38.994;2023-07-24T05:48:18;100733.13;;;31.38;45.91
50684;BME280;36654;45.042;38.994;2023-07-24T05:50:44;100741.53;;;31.35;45.69
50684;BME280;36654;45.042;38.994;2023-07-24T05:53:10;100732.69;;;31.07;45.48
50684;BME280;36654;45.042;38.994;2023-07-24T05:55:35;100744.81;;;30.66;46.65
50684;BME280;36654;45.042;38.994;2023-07-24T05:58:01;100751.97;;;30.30;47.10
50684;BME280;36654;45.042;38.994;2023-07-24T06:00:27;100747.56;;;29.75;48.53
50684;BME280;36654;45.042;38.994;2023-07-24T06:02:53;100738.16;;;29.39;49.65
50684;BME280;36654;45.042;38.994;2023-07-24T06:05:19;100726.31;;;29.26;50.24
50684;BME280;36654;45.042;38.994;2023-07-24T06:07:46;100714.03;;;29.33;49.37
50684;BME280;36654;45.042;38.994;2023-07-24T06:10:11;100692.44;;;29.16;49.33
50684;BME280;36654;45.042;38.994;2023-07-24T06:12:37;100704.22;;;29.16;49.13
50684;BME280;36654;45.042;38.994;2023-07-24T06:15:03;100747.75;;;29.32;48.81
50684;BME280;36654;45.042;38.994;2023-07-24T06:17:29;100745.00;;;29.32;48.55
50684;BME280;36654;45.042;38.994;2023-07-24T06:19:54;100743.97;;;29.48;48.71
50684;BME280;36654;45.042;38.994;2023-07-24T06:22:20;100734.06;;;29.59;48.28
50684;BME280;36654;45.042;38.994;2023-07-24T06:24:46;100733.81;;;29.50;48.13
50684;BME280;36654;45.042;38.994;2023-07-24T06:27:11;100744.91;;;29.07;48.81
50684;BME280;36654;45.042;38.994;2023-07-24T06:29:37;100712.72;;;28.56;49.57
50684;BME280;36654;45.042;38.994;2023-07-24T06:32:03;100750.19;;;28.81;50.35
50684;BME280;36654;45.042;38.994;2023-07-24T06:34:29;100750.56;;;28.89;49.75
50684;BME280;36654;45.042;38.994;2023-07-24T06:36:54;100696.25;;;28.57;49.83
50684;BME280;36654;45.042;38.994;2023-07-24T06:39:20;100716.69;;;28.65;49.23
50684;BME280;36654;45.042;38.994;2023-07-24T06:41:46;100731.88;;;28.69;49.64
50684;BME280;36654;45.042;38.994;2023-07-24T06:44:11;100729.94;;;28.71;49.75
50684;BME280;36654;45.042;38.994;2023-07-24T06:46:37;100736.72;;;28.78;49.48
50684;BME280;36654;45.042;38.994;2023-07-24T06:49:03;100729.91;;;28.85;49.60
50684;BME280;36654;45.042;38.994;2023-07-24T06:51:28;100743.38;;;28.88;49.59
50684;BME280;36654;45.042;38.994;2023-07-24T06:53:54;100724.84;;;28.79;49.76
50684;BME280;36654;45.042;38.994;2023-07-24T06:56:19;100744.34;;;28.73;49.25
50684;BME280;36654;45.042;38.994;2023-07-24T06:58:45;100747.19;;;28.71;49.54
50684;BME280;36654;45.042;38.994;2023-07-24T07:01:11;100744.75;;;28.67;49.64
50684;BME280;36654;45.042;38.994;2023-07-24T07:03:36;100746.88;;;28.62;50.33
50684;BME280;36654;45.042;38.994;2023-07-24T07:06:02;100707.53;;;28.37;50.17
50684;BME280;36654;45.042;38.994;2023-07-24T07:08:31;100734.69;;;28.53;50.08
50684;BME280;36654;45.042;38.994;2023-07-24T07:11:00;100735.97;;;28.62;49.48
50684;BME280;36654;45.042;38.994;2023-07-24T07:13:26;100729.94;;;28.71;48.98
50684;BME280;36654;45.042;38.994;2023-07-24T07:15:52;100740.66;;;28.74;49.34
50684;BME280;36654;45.042;38.994;2023-07-24T07:18:18;100697.09;;;28.58;49.09
50684;BME280;36654;45.042;38.994;2023-07-24T07:20:50;100730.09;;;28.96;48.41
50684;BME280;36654;45.042;38.994;2023-07-24T07:23:16;100723.69;;;28.83;49.10
50684;BME280;36654;45.042;38.994;2023-07-24T07:25:43;100742.31;;;28.76;48.95
50684;BME280;36654;45.042;38.994;2023-07-24T07:28:14;100735.41;;;28.71;48.22
50684;BME280;36654;45.042;38.994;2023-07-24T07:30:40;100735.06;;;28.75;47.73
50684;BME280;36654;45.042;38.994;2023-07-24T07:33:06;100730.31;;;28.79;48.08
50684;BME280;36654;45.042;38.994;2023-07-24T07:35:33;100738.88;;;28.87;47.82
50684;BME280;36654;45.042;38.994;2023-07-24T07:37:59;100744.22;;;28.89;48.03
50684;BME280;36654;45.042;38.994;2023-07-24T07:40:25;100733.78;;;28.95;48.72
50684;BME280;36654;45.042;38.994;2023-07-24T07:42:52;100738.09;;;28.85;47.84
50684;BME280;36654;45.042;38.994;2023-07-24T07:45:18;100750.38;;;28.78;47.54
50684;BME280;36654;45.042;38.994;2023-07-24T07:47:44;100736.91;;;28.89;47.29
50684;BME280;36654;45.042;38.994;2023-07-24T07:50:10;100730.53;;;29.03;46.47
50684;BME280;36654;45.042;38.994;2023-07-24T07:52:36;100731.44;;;29.03;46.70
50684;BME280;36654;45.042;38.994;2023-07-24T07:55:01;100741.16;;;29.22;46.19
50684;BME280;36654;45.042;38.994;2023-07-24T07:57:27;100733.13;;;29.33;45.49
50684;BME280;36654;45.042;38.994;2023-07-24T07:59:53;100726.13;;;29.29;44.34
50684;BME280;36654;45.042;38.994;2023-07-24T08:02:18;100707.47;;;29.09;44.73
50684;BME280;36654;45.042;38.994;2023-07-24T08:04:44;100719.88;;;29.27;44.63
50684;BME280;36654;45.042;38.994;2023-07-24T08:07:09;100725.28;;;29.41;41.80
50684;BME280;36654;45.042;38.994;2023-07-24T08:09:35;100730.31;;;29.48;41.24
50684;BME280;36654;45.042;38.994;2023-07-24T08:12:03;100702.44;;;29.42;41.40
50684;BME280;36654;45.042;38.994;2023-07-24T08:14:30;100714.31;;;29.56;42.06
50684;BME280;36654;45.042;38.994;2023-07-24T08:16:55;100721.25;;;29.74;43.12
50684;BME280;36654;45.042;38.994;2023-07-24T08:19:21;100718.28;;;29.77;43.04
50684;BME280;36654;45.042;38.994;2023-07-24T08:21:47;100726.50;;;30.03;42.34
50684;BME280;36654;45.042;38.994;2023-07-24T08:24:13;100694.63;;;29.91;42.27
50684;BME280;36654;45.042;38.994;2023-07-24T08:26:38;100684.19;;;29.83;42.17
50684;BME280;36654;45.042;38.994;2023-07-24T08:29:05;100727.84;;;30.10;41.75
50684;BME280;36654;45.042;38.994;2023-07-24T08:31:30;100718.00;;;30.20;40.76
50684;BME280;36654;45.042;38.994;2023-07-24T08:33:56;100718.00;;;30.20;40.61
50684;BME280;36654;45.042;38.994;2023-07-24T08:36:22;100709.06;;;30.18;41.38
50684;BME280;36654;45.042;38.994;2023-07-24T08:38:47;100710.41;;;30.25;41.39
50684;BME280;36654;45.042;38.994;2023-07-24T08:41:14;100686.75;;;30.12;41.96
50684;BME280;36654;45.042;38.994;2023-07-24T08:43:43;100711.69;;;30.33;41.70
50684;BME280;36654;45.042;38.994;2023-07-24T08:46:09;100710.72;;;30.34;42.06
50684;BME280;36654;45.042;38.994;2023-07-24T08:48:40;100710.78;;;30.45;41.83
50684;BME280;36654;45.042;38.994;2023-07-24T08:51:11;100702.06;;;30.40;42.04
50684;BME280;36654;45.042;38.994;2023-07-24T08:53:39;100706.44;;;30.29;42.93
50684;BME280;36654;45.042;38.994;2023-07-24T08:56:06;100711.44;;;30.10;42.80
50684;BME280;36654;45.042;38.994;2023-07-24T08:58:33;100716.03;;;29.97;42.84
50684;BME280;36654;45.042;38.994;2023-07-24T09:01:00;100704.25;;;30.09;42.49
50684;BME280;36654;45.042;38.994;2023-07-24T09:03:26;100712.75;;;30.04;42.60
50684;BME280;36654;45.042;38.994;2023-07-24T09:05:53;100705.56;;;29.91;43.07
50684;BME280;36654;45.042;38.994;2023-07-24T09:08:35;100714.16;;;29.72;43.86
50684;BME280;36654;45.042;38.994;2023-07-24T09:11:02;100697.75;;;29.44;43.70
50684;BME280;36654;45.042;38.994;2023-07-24T09:13:29;100697.31;;;29.38;43.85
50684;BME280;36654;45.042;38.994;2023-07-24T09:15:55;100687.72;;;29.45;44.12
50684;BME280;36654;45.042;38.994;2023-07-24T09:18:21;100696.56;;;29.76;43.38
50684;BME280;36654;45.042;38.994;2023-07-24T09:20:47;100656.34;;;29.78;42.85
50684;BME280;36654;45.042;38.994;2023-07-24T09:23:14;100674.28;;;29.95;42.54
50684;BME280;36654;45.042;38.994;2023-07-24T09:25:41;100687.19;;;30.18;41.98
50684;BME280;36654;45.042;38.994;2023-07-24T09:28:14;100687.97;;;30.33;41.53
50684;BME280;36654;45.042;38.994;2023-07-24T09:30:40;100690.22;;;30.52;40.86
50684;BME280;36654;45.042;38.994;2023-07-24T09:33:06;100672.91;;;30.64;39.54
50684;BME280;36654;45.042;38.994;2023-07-24T09:35:32;100679.22;;;30.78;39.46
50684;BME280;36654;45.042;38.994;2023-07-24T09:38:08;100686.88;;;30.72;38.94
50684;BME280;36654;45.042;38.994;2023-07-24T09:40:52;100680.63;;;30.46;39.07
50684;BME280;36654;45.042;38.994;2023-07-24T09:43:24;100687.25;;;30.55;38.75
50684;BME280;36654;45.042;38.994;2023-07-24T09:45:50;100678.84;;;30.58;38.97
50684;BME280;36654;45.042;38.994;2023-07-24T09:48:18;100663.97;;;30.49;39.55
50684;BME280;36654;45.042;38.994;2023-07-24T09:50:48;100675.16;;;30.21;39.87
50684;BME280;36654;45.042;38.994;2023-07-24T09:55:54;100668.16;;;30.04;39.86
50684;BME280;36654;45.042;38.994;2023-07-24T09:58:21;100644.13;;;29.83;39.64
50684;BME280;36654;45.042;38.994;2023-07-24T10:00:48;100671.22;;;30.12;38.05
50684;BME280;36654;45.042;38.994;2023-07-24T10:03:15;100673.84;;;30.01;38.44
50684;BME280;36654;45.042;38.994;2023-07-24T10:05:46;100667.94;;;29.94;38.93
50684;BME280;36654;45.042;38.994;2023-07-24T10:08:14;100635.25;;;29.80;39.66
50684;BME280;36654;45.042;38.994;2023-07-24T10:10:41;100661.16;;;30.00;39.79
50684;BME280;36654;45.042;38.994;2023-07-24T10:13:07;100651.09;;;29.87;39.76
50684;BME280;36654;45.042;38.994;2023-07-24T10:15:37;100655.47;;;29.77;40.52
50684;BME280;36654;45.042;38.994;2023-07-24T10:18:04;100652.41;;;29.69;41.24
50684;BME280;36654;45.042;38.994;2023-07-24T10:20:40;100653.50;;;29.79;41.13
50684;BME280;36654;45.042;38.994;2023-07-24T10:23:09;100641.47;;;29.95;40.58
50684;BME280;36654;45.042;38.994;2023-07-24T10:25:39;100636.00;;;29.95;40.60
50684;BME280;36654;45.042;38.994;2023-07-24T10:28:10;100645.09;;;29.95;40.92
50684;BME280;36654;45.042;38.994;2023-07-24T10:30:37;100639.97;;;29.91;40.87
50684;BME280;36654;45.042;38.994;2023-07-24T10:33:05;100645.63;;;29.87;41.45
50684;BME280;36654;45.042;38.994;2023-07-24T10:35:45;100623.28;;;29.55;41.58
50684;BME280;36654;45.042;38.994;2023-07-24T10:38:15;100652.19;;;29.72;41.85
50684;BME280;36654;45.042;38.994;2023-07-24T10:40:41;100633.63;;;29.37;41.40
50684;BME280;36654;45.042;38.994;2023-07-24T10:43:09;100648.41;;;29.48;41.49
50684;BME280;36654;45.042;38.994;2023-07-24T10:45:42;100639.25;;;29.61;41.55
50684;BME280;36654;45.042;38.994;2023-07-24T10:48:08;100631.22;;;29.85;41.49
50684;BME280;36654;45.042;38.994;2023-07-24T10:50:44;100629.25;;;30.13;40.15
50684;BME280;36654;45.042;38.994;2023-07-24T10:53:16;100571.53;;;29.92;40.05
50684;BME280;36654;45.042;38.994;2023-07-24T10:55:43;100623.78;;;30.13;40.52
50684;BME280;36654;45.042;38.994;2023-07-24T10:58:09;100626.72;;;30.10;40.28
50684;BME280;36654;45.042;38.994;2023-07-24T11:00:35;100634.50;;;30.03;40.20
50684;BME280;36654;45.042;38.994;2023-07-24T11:03:01;100624.00;;;29.84;40.94
50684;BME280;36654;45.042;38.994;2023-07-24T11:05:27;100611.09;;;29.86;40.96
50684;BME280;36654;45.042;38.994;2023-07-24T11:07:54;100589.03;;;29.89;41.07
50684;BME280;36654;45.042;38.994;2023-07-24T11:10:21;100586.94;;;30.06;41.02
50684;BME280;36654;45.042;38.994;2023-07-24T11:12:48;100579.19;;;30.25;39.79
50684;BME280;36654;45.042;38.994;2023-07-24T11:15:14;100622.84;;;30.51;39.93
50684;BME280;36654;45.042;38.994;2023-07-24T11:17:41;100596.19;;;30.42;40.17
50684;BME280;36654;45.042;38.994;2023-07-24T11:22:33;100575.53;;;30.12;39.91
50684;BME280;36654;45.042;38.994;2023-07-24T11:24:59;100612.38;;;30.32;39.95
50684;BME280;36654;45.042;38.994;2023-07-24T11:27:26;100593.16;;;30.21;40.10
50684;BME280;36654;45.042;38.994;2023-07-24T11:29:52;100591.88;;;30.01;39.89
50684;BME280;36654;45.042;38.994;2023-07-24T11:32:19;100606.16;;;30.04;40.59
50684;BME280;36654;45.042;38.994;2023-07-24T11:34:46;100589.66;;;30.06;40.31
50684;BME280;36654;45.042;38.994;2023-07-24T11:37:12;100576.34;;;29.88;40.11
50684;BME280;36654;45.042;38.994;2023-07-24T11:39:39;100596.44;;;30.13;39.68
50684;BME280;36654;45.042;38.994;2023-07-24T11:42:05;100591.28;;;30.21;38.89
50684;BME280;36654;45.042;38.994;2023-07-24T11:44:31;100587.38;;;30.25;38.24
50684;BME280;36654;45.042;38.994;2023-07-24T11:47:04;100589.88;;;30.28;38.46
50684;BME280;36654;45.042;38.994;2023-07-24T11:49:31;100595.34;;;30.28;39.12
50684;BME280;36654;45.042;38.994;2023-07-24T11:52:05;100578.56;;;30.20;38.86
50684;BME280;36654;45.042;38.994;2023-07-24T11:54:33;100598.19;;;30.27;38.96
50684;BME280;36654;45.042;38.994;2023-07-24T11:56:59;100568.66;;;30.19;38.50
50684;BME280;36654;45.042;38.994;2023-07-24T11:59:26;100577.31;;;30.26;37.97
50684;BME280;36654;45.042;38.994;2023-07-24T12:01:52;100552.72;;;30.13;38.31
50684;BME280;36654;45.042;38.994;2023-07-24T12:04:17;100575.69;;;30.10;38.23
50684;BME280;36654;45.042;38.994;2023-07-24T12:06:44;100591.63;;;30.04;38.42
50684;BME280;36654;45.042;38.994;2023-07-24T12:09:11;100590.78;;;29.91;39.05
50684;BME280;36654;45.042;38.994;2023-07-24T12:11:40;100592.97;;;29.85;38.72
50684;BME280;36654;45.042;38.994;2023-07-24T12:14:09;100565.84;;;29.82;38.85
50684;BME280;36654;45.042;38.994;2023-07-24T12:16:35;100547.41;;;29.73;38.52
50684;BME280;36654;45.042;38.994;2023-07-24T12:19:01;100567.03;;;30.04;39.15
50684;BME280;36654;45.042;38.994;2023-07-24T12:21:27;100575.25;;;30.04;38.64
50684;BME280;36654;45.042;38.994;2023-07-24T12:23:52;100560.16;;;30.11;39.07
50684;BME280;36654;45.042;38.994;2023-07-24T12:26:18;100555.78;;;30.08;38.94
50684;BME280;36654;45.042;38.994;2023-07-24T12:28:44;100555.09;;;30.05;38.67
50684;BME280;36654;45.042;38.994;2023-07-24T12:31:09;100568.78;;;30.05;38.74
50684;BME280;36654;45.042;38.994;2023-07-24T12:33:35;100570.63;;;30.04;38.90
50684;BME280;36654;45.042;38.994;2023-07-24T12:36:01;100524.31;;;29.90;38.60
50684;BME280;36654;45.042;38.994;2023-07-24T12:38:27;100547.91;;;30.04;38.17
50684;BME280;36654;45.042;38.994;2023-07-24T12:40:53;100550.53;;;29.93;38.87
50684;BME280;36654;45.042;38.994;2023-07-24T12:43:18;100532.44;;;29.79;39.22
50684;BME280;36654;45.042;38.994;2023-07-24T12:45:44;100548.34;;;29.98;40.01
50684;BME280;36654;45.042;38.994;2023-07-24T12:48:09;100558.44;;;29.84;39.68
50684;BME280;36654;45.042;38.994;2023-07-24T12:50:35;100550.53;;;29.93;39.90